Stockett, MT (59480)

10:43 PM MDT on September 03, 2015 (GMT -0600)
6S Great Falls | | Change Station
CLOSE
Current Station
Personal Weather Station
Location: Great Falls, MT
Elevation: 3510 ft
Nearby Weather Stations

Elev 3510 ft 47.43 °N, 111.32 °W | Updated 3 seconds ago

Rain
Rain
50.0 °F
Feels Like 50.0 °F
N
2.0
Wind Variable Wind from East
Gusts 2.9 mph

Today
High -- | Low -- °F
--% Chance of Precip.
Yesterday
High -- | Low -- °F
Precip. -- in
6:46 AM 8:00 PM
Waning Gibbous, 63% visible
Pressure 30.01 in
Visibility 6.0 miles
Clouds Few 300 ft
Overcast 2000 ft
Dew Point 46 °F
Humidity 88%
Rainfall 0.34 in
Snow Depth Not available.
UV 0 out of 12
Pollen 7.40 out of 12
Air Quality Not available.
Flu Activity Not available.
SPECI KGFA 040431Z AUTO 11003KT 6SM -RA FEW003 OVC020 09/09 A3001 RMK AO2 PRESRR TSNO $
Pressure 30.01 in
Visibility 6.0 miles
Clouds Few 300 ft
Overcast 2000 ft
Dew Point 46 °F
Humidity 88%
Rainfall 0.34 in
Snow Depth Not available.
UV 0 out of 12
Pollen 7.40 out of 12
Air Quality Not available.
Flu Activity Not available.
SPECI KGFA 040431Z AUTO 11003KT 6SM -RA FEW003 OVC020 09/09 A3001 RMK AO2 PRESRR TSNO $

10-Day Weather Forecast

×

Almanac

Astronomy

Sep. 03, 2015 Rise Set
Actual Time
Civil Twilight
Nautical Twilight
Astronomical Twilight
Moon
Length of Visible Light
Length of Day
Tomorrow will be .
, % of the Moon is Illuminated

Today's Extremes

State Highs State Lows

Community

WunderPhotos

Upload Photos

1,852,129 photos uploaded!

WunderBlogs® & News

Nearby

Air Quality

  Air Quality AQ Index Pollutant
Not available.

Snow Depth

Station Depth Elevation

Earthquake Activity

City Distance Mag. Time & Date
Minimum magnitude displayed is 2.5.

Coastal Water Temperatures

Place Temperature

Stations

Nearby Weather Stations

Station Location Temp. Windchill Dew Point Humidity Wind Precip. Elev Updated Type